sensor_id;sensor_type;location;lat;lon;timestamp;P1;durP1;ratioP1;P2;durP2;ratioP2
68375;SDS011;55318;52.068;5.188;2023-04-25T00:00:47;3.3;;;1.6;;
68375;SDS011;55318;52.068;5.188;2023-04-25T00:04:00;6.3;;;2.1;;
68375;SDS011;55318;52.068;5.188;2023-04-25T00:05:36;4.61;;;1.8;;
68375;SDS011;55318;52.068;5.188;2023-04-25T00:07:13;6.7;;;2.1;;
68375;SDS011;55318;52.068;5.188;2023-04-25T00:10:25;4.7;;;1.7;;
68375;SDS011;55318;52.068;5.188;2023-04-25T00:12:01;7.3;;;2.0;;
68375;SDS011;55318;52.068;5.188;2023-04-25T00:13:37;6.3;;;2.21;;
68375;SDS011;55318;52.068;5.188;2023-04-25T00:16:50;8.6;;;2.21;;
68375;SDS011;55318;52.068;5.188;2023-04-25T00:18:26;8.6;;;2.21;;
68375;SDS011;55318;52.068;5.188;2023-04-25T00:20:02;5.4;;;1.7;;
68375;SDS011;55318;52.068;5.188;2023-04-25T00:21:38;4.0;;;1.9;;
68375;SDS011;55318;52.068;5.188;2023-04-25T00:24:51;9.0;;;3.4;;
68375;SDS011;55318;52.068;5.188;2023-04-25T00:26:27;6.4;;;2.4;;
68375;SDS011;55318;52.068;5.188;2023-04-25T00:28:05;7.6;;;2.0;;
68375;SDS011;55318;52.068;5.188;2023-04-25T00:31:17;3.5;;;1.6;;
68375;SDS011;55318;52.068;5.188;2023-04-25T00:32:53;8.9;;;2.21;;
68375;SDS011;55318;52.068;5.188;2023-04-25T00:34:29;4.3;;;1.4;;
68375;SDS011;55318;52.068;5.188;2023-04-25T00:37:42;8.1;;;1.9;;
68375;SDS011;55318;52.068;5.188;2023-04-25T00:39:19;5.9;;;2.21;;
68375;SDS011;55318;52.068;5.188;2023-04-25T00:40:56;4.5;;;1.3;;
68375;SDS011;55318;52.068;5.188;2023-04-25T00:44:08;3.0;;;1.8;;
68375;SDS011;55318;52.068;5.188;2023-04-25T00:45:45;6.5;;;1.9;;
68375;SDS011;55318;52.068;5.188;2023-04-25T00:47:23;5.8;;;2.21;;
68375;SDS011;55318;52.068;5.188;2023-04-25T00:49:00;4.41;;;2.0;;
68375;SDS011;55318;52.068;5.188;2023-04-25T00:52:13;3.6;;;1.7;;
68375;SDS011;55318;52.068;5.188;2023-04-25T00:53:50;5.5;;;1.9;;
68375;SDS011;55318;52.068;5.188;2023-04-25T00:55:27;3.9;;;1.7;;
68375;SDS011;55318;52.068;5.188;2023-04-25T00:58:39;9.71;;;2.0;;
68375;SDS011;55318;52.068;5.188;2023-04-25T01:00:16;5.2;;;1.6;;
68375;SDS011;55318;52.068;5.188;2023-04-25T01:01:53;6.1;;;1.9;;
68375;SDS011;55318;52.068;5.188;2023-04-25T01:03:30;5.5;;;1.8;;
68375;SDS011;55318;52.068;5.188;2023-04-25T01:06:45;7.6;;;1.9;;
68375;SDS011;55318;52.068;5.188;2023-04-25T01:08:21;5.4;;;1.4;;
68375;SDS011;55318;52.068;5.188;2023-04-25T01:09:59;4.61;;;1.7;;
68375;SDS011;55318;52.068;5.188;2023-04-25T01:13:11;2.9;;;1.4;;
68375;SDS011;55318;52.068;5.188;2023-04-25T01:14:47;8.2;;;1.7;;
68375;SDS011;55318;52.068;5.188;2023-04-25T01:16:23;4.8;;;1.2;;
68375;SDS011;55318;52.068;5.188;2023-04-25T01:19:36;4.5;;;1.7;;
68375;SDS011;55318;52.068;5.188;2023-04-25T01:21:13;3.9;;;1.2;;
68375;SDS011;55318;52.068;5.188;2023-04-25T01:22:49;4.8;;;2.0;;
68375;SDS011;55318;52.068;5.188;2023-04-25T01:24:26;6.6;;;2.0;;
68375;SDS011;55318;52.068;5.188;2023-04-25T01:27:41;7.5;;;1.6;;
68375;SDS011;55318;52.068;5.188;2023-04-25T01:29:18;10.1;;;2.9;;
68375;SDS011;55318;52.068;5.188;2023-04-25T01:30:55;6.4;;;2.6;;
68375;SDS011;55318;52.068;5.188;2023-04-25T01:34:09;6.1;;;2.21;;
68375;SDS011;55318;52.068;5.188;2023-04-25T01:35:45;3.7;;;1.6;;
68375;SDS011;55318;52.068;5.188;2023-04-25T01:37:22;3.8;;;1.9;;
68375;SDS011;55318;52.068;5.188;2023-04-25T01:40:36;6.5;;;2.8;;
68375;SDS011;55318;52.068;5.188;2023-04-25T01:42:15;7.4;;;2.21;;
68375;SDS011;55318;52.068;5.188;2023-04-25T01:43:54;4.0;;;2.0;;
68375;SDS011;55318;52.068;5.188;2023-04-25T01:45:30;3.5;;;1.5;;
68375;SDS011;55318;52.068;5.188;2023-04-25T01:48:42;2.8;;;1.6;;
68375;SDS011;55318;52.068;5.188;2023-04-25T01:50:18;7.6;;;2.6;;
68375;SDS011;55318;52.068;5.188;2023-04-25T01:51:54;4.8;;;2.0;;
68375;SDS011;55318;52.068;5.188;2023-04-25T01:55:07;4.1;;;1.5;;
68375;SDS011;55318;52.068;5.188;2023-04-25T01:56:49;4.8;;;1.9;;
68375;SDS011;55318;52.068;5.188;2023-04-25T01:58:26;4.91;;;1.9;;
68375;SDS011;55318;52.068;5.188;2023-04-25T02:00:03;4.3;;;1.8;;
68375;SDS011;55318;52.068;5.188;2023-04-25T02:03:18;8.71;;;2.0;;
68375;SDS011;55318;52.068;5.188;2023-04-25T02:04:54;6.0;;;2.1;;
68375;SDS011;55318;52.068;5.188;2023-04-25T02:09:45;6.1;;;2.1;;
68375;SDS011;55318;52.068;5.188;2023-04-25T02:11:21;2.9;;;1.5;;
68375;SDS011;55318;52.068;5.188;2023-04-25T02:12:57;4.1;;;2.21;;
68375;SDS011;55318;52.068;5.188;2023-04-25T02:16:09;7.4;;;1.7;;
68375;SDS011;55318;52.068;5.188;2023-04-25T02:17:45;5.2;;;1.9;;
68375;SDS011;55318;52.068;5.188;2023-04-25T02:19:21;4.8;;;1.7;;
68375;SDS011;55318;52.068;5.188;2023-04-25T02:20:58;3.2;;;1.5;;
68375;SDS011;55318;52.068;5.188;2023-04-25T02:24:11;8.2;;;2.1;;
68375;SDS011;55318;52.068;5.188;2023-04-25T02:25:47;5.5;;;1.8;;
68375;SDS011;55318;52.068;5.188;2023-04-25T02:27:24;8.71;;;1.4;;
68375;SDS011;55318;52.068;5.188;2023-04-25T02:30:36;8.1;;;2.0;;
68375;SDS011;55318;52.068;5.188;2023-04-25T02:32:12;3.6;;;1.7;;
68375;SDS011;55318;52.068;5.188;2023-04-25T02:33:49;4.91;;;2.6;;
68375;SDS011;55318;52.068;5.188;2023-04-25T02:37:02;5.5;;;1.8;;
68375;SDS011;55318;52.068;5.188;2023-04-25T02:38:38;7.1;;;2.31;;
68375;SDS011;55318;52.068;5.188;2023-04-25T02:40:15;6.3;;;2.4;;
68375;SDS011;55318;52.068;5.188;2023-04-25T02:41:51;3.9;;;1.6;;
68375;SDS011;55318;52.068;5.188;2023-04-25T02:45:04;5.3;;;2.0;;
68375;SDS011;55318;52.068;5.188;2023-04-25T02:46:41;4.7;;;1.8;;
68375;SDS011;55318;52.068;5.188;2023-04-25T02:48:17;5.2;;;2.31;;
68375;SDS011;55318;52.068;5.188;2023-04-25T02:51:29;3.9;;;2.1;;
68375;SDS011;55318;52.068;5.188;2023-04-25T02:53:05;3.6;;;1.4;;
68375;SDS011;55318;52.068;5.188;2023-04-25T02:54:41;3.6;;;1.7;;
68375;SDS011;55318;52.068;5.188;2023-04-25T02:57:53;3.2;;;1.7;;
68375;SDS011;55318;52.068;5.188;2023-04-25T02:59:30;3.7;;;1.6;;
68375;SDS011;55318;52.068;5.188;2023-04-25T03:01:06;3.1;;;1.8;;
68375;SDS011;55318;52.068;5.188;2023-04-25T03:04:18;6.4;;;1.6;;
68375;SDS011;55318;52.068;5.188;2023-04-25T03:05:54;8.2;;;2.0;;
68375;SDS011;55318;52.068;5.188;2023-04-25T03:07:30;4.8;;;1.6;;
68375;SDS011;55318;52.068;5.188;2023-04-25T03:09:06;6.4;;;1.5;;
68375;SDS011;55318;52.068;5.188;2023-04-25T03:12:20;7.3;;;1.9;;
68375;SDS011;55318;52.068;5.188;2023-04-25T03:13:56;8.31;;;1.7;;
68375;SDS011;55318;52.068;5.188;2023-04-25T03:15:32;6.8;;;2.4;;
68375;SDS011;55318;52.068;5.188;2023-04-25T03:18:44;7.6;;;2.4;;
68375;SDS011;55318;52.068;5.188;2023-04-25T03:20:20;7.7;;;1.8;;
68375;SDS011;55318;52.068;5.188;2023-04-25T03:21:56;8.6;;;2.8;;
68375;SDS011;55318;52.068;5.188;2023-04-25T03:25:09;4.2;;;1.9;;
68375;SDS011;55318;52.068;5.188;2023-04-25T03:26:45;6.1;;;2.0;;
68375;SDS011;55318;52.068;5.188;2023-04-25T03:28:21;3.5;;;1.8;;
68375;SDS011;55318;52.068;5.188;2023-04-25T03:29:58;3.6;;;1.7;;
68375;SDS011;55318;52.068;5.188;2023-04-25T03:33:10;10.4;;;1.9;;
68375;SDS011;55318;52.068;5.188;2023-04-25T03:34:46;6.8;;;1.7;;
68375;SDS011;55318;52.068;5.188;2023-04-25T03:36:22;6.4;;;2.1;;
68375;SDS011;55318;52.068;5.188;2023-04-25T03:39:35;4.61;;;2.4;;
68375;SDS011;55318;52.068;5.188;2023-04-25T03:41:12;3.6;;;1.2;;
68375;SDS011;55318;52.068;5.188;2023-04-25T03:42:48;3.3;;;1.9;;
68375;SDS011;55318;52.068;5.188;2023-04-25T03:46:00;6.0;;;1.7;;
68375;SDS011;55318;52.068;5.188;2023-04-25T03:47:36;2.21;;;1.4;;
68375;SDS011;55318;52.068;5.188;2023-04-25T03:49:12;3.7;;;1.3;;
68375;SDS011;55318;52.068;5.188;2023-04-25T03:52:25;4.7;;;1.6;;
68375;SDS011;55318;52.068;5.188;2023-04-25T03:54:01;5.0;;;1.5;;
68375;SDS011;55318;52.068;5.188;2023-04-25T03:55:37;2.6;;;1.0;;
68375;SDS011;55318;52.068;5.188;2023-04-25T03:57:13;2.21;;;1.4;;
68375;SDS011;55318;52.068;5.188;2023-04-25T04:00:25;8.31;;;1.8;;
68375;SDS011;55318;52.068;5.188;2023-04-25T04:02:01;2.8;;;1.0;;
68375;SDS011;55318;52.068;5.188;2023-04-25T04:03:37;2.7;;;0.8;;
68375;SDS011;55318;52.068;5.188;2023-04-25T04:06:50;2.21;;;1.3;;
68375;SDS011;55318;52.068;5.188;2023-04-25T04:08:26;1.2;;;0.9;;
68375;SDS011;55318;52.068;5.188;2023-04-25T04:10:02;7.1;;;1.5;;
68375;SDS011;55318;52.068;5.188;2023-04-25T04:13:14;1.6;;;1.0;;
68375;SDS011;55318;52.068;5.188;2023-04-25T04:14:50;3.3;;;0.9;;
68375;SDS011;55318;52.068;5.188;2023-04-25T04:16:26;2.0;;;1.2;;
68375;SDS011;55318;52.068;5.188;2023-04-25T04:18:03;2.6;;;1.11;;
68375;SDS011;55318;52.068;5.188;2023-04-25T04:21:15;3.1;;;0.9;;
68375;SDS011;55318;52.068;5.188;2023-04-25T04:22:51;2.9;;;1.0;;
68375;SDS011;55318;52.068;5.188;2023-04-25T04:24:27;5.3;;;1.7;;
68375;SDS011;55318;52.068;5.188;2023-04-25T04:27:39;3.6;;;1.0;;
68375;SDS011;55318;52.068;5.188;2023-04-25T04:29:16;2.0;;;1.3;;
68375;SDS011;55318;52.068;5.188;2023-04-25T04:30:52;2.4;;;0.8;;
68375;SDS011;55318;52.068;5.188;2023-04-25T04:34:05;5.4;;;1.5;;
68375;SDS011;55318;52.068;5.188;2023-04-25T04:35:41;2.9;;;0.8;;
68375;SDS011;55318;52.068;5.188;2023-04-25T04:37:17;3.2;;;1.2;;
68375;SDS011;55318;52.068;5.188;2023-04-25T04:40:30;1.5;;;1.2;;
68375;SDS011;55318;52.068;5.188;2023-04-25T04:42:06;3.1;;;1.11;;
68375;SDS011;55318;52.068;5.188;2023-04-25T04:43:42;2.4;;;1.2;;
68375;SDS011;55318;52.068;5.188;2023-04-25T04:45:19;6.4;;;1.5;;
68375;SDS011;55318;52.068;5.188;2023-04-25T04:48:31;6.0;;;1.8;;
68375;SDS011;55318;52.068;5.188;2023-04-25T04:50:08;4.2;;;1.7;;
68375;SDS011;55318;52.068;5.188;2023-04-25T04:51:46;3.6;;;1.0;;
68375;SDS011;55318;52.068;5.188;2023-04-25T04:54:58;2.6;;;1.11;;
68375;SDS011;55318;52.068;5.188;2023-04-25T04:56:34;7.5;;;1.3;;
68375;SDS011;55318;52.068;5.188;2023-04-25T04:58:11;3.9;;;1.2;;
68375;SDS011;55318;52.068;5.188;2023-04-25T05:01:23;2.8;;;1.3;;
68375;SDS011;55318;52.068;5.188;2023-04-25T05:03:00;1.9;;;0.8;;
68375;SDS011;55318;52.068;5.188;2023-04-25T05:04:36;1.9;;;1.0;;
68375;SDS011;55318;52.068;5.188;2023-04-25T05:06:12;1.9;;;1.3;;
68375;SDS011;55318;52.068;5.188;2023-04-25T05:09:25;4.8;;;1.2;;
68375;SDS011;55318;52.068;5.188;2023-04-25T05:11:02;2.5;;;1.0;;
68375;SDS011;55318;52.068;5.188;2023-04-25T05:12:38;1.9;;;1.11;;
68375;SDS011;55318;52.068;5.188;2023-04-25T05:15:50;3.0;;;1.5;;
68375;SDS011;55318;52.068;5.188;2023-04-25T05:17:26;2.1;;;1.11;;
68375;SDS011;55318;52.068;5.188;2023-04-25T05:19:02;4.2;;;1.5;;
68375;SDS011;55318;52.068;5.188;2023-04-25T05:22:15;2.0;;;1.2;;
68375;SDS011;55318;52.068;5.188;2023-04-25T05:23:51;2.0;;;1.11;;
68375;SDS011;55318;52.068;5.188;2023-04-25T05:25:27;4.0;;;1.11;;
68375;SDS011;55318;52.068;5.188;2023-04-25T05:27:03;2.6;;;1.11;;
68375;SDS011;55318;52.068;5.188;2023-04-25T05:30:15;4.61;;;1.0;;
68375;SDS011;55318;52.068;5.188;2023-04-25T05:31:51;4.0;;;1.5;;
68375;SDS011;55318;52.068;5.188;2023-04-25T05:33:28;1.3;;;0.8;;
68375;SDS011;55318;52.068;5.188;2023-04-25T05:36:41;5.0;;;1.0;;
68375;SDS011;55318;52.068;5.188;2023-04-25T05:38:17;1.4;;;0.7;;
68375;SDS011;55318;52.068;5.188;2023-04-25T05:39:53;2.9;;;1.9;;
68375;SDS011;55318;52.068;5.188;2023-04-25T05:43:05;4.2;;;1.0;;
68375;SDS011;55318;52.068;5.188;2023-04-25T05:44:42;12.2;;;1.4;;
68375;SDS011;55318;52.068;5.188;2023-04-25T05:46:18;2.31;;;1.3;;
68375;SDS011;55318;52.068;5.188;2023-04-25T05:49:30;5.3;;;1.6;;
68375;SDS011;55318;52.068;5.188;2023-04-25T05:51:06;4.1;;;1.6;;
68375;SDS011;55318;52.068;5.188;2023-04-25T05:52:43;5.0;;;1.6;;
68375;SDS011;55318;52.068;5.188;2023-04-25T05:54:20;6.0;;;1.6;;
68375;SDS011;55318;52.068;5.188;2023-04-25T05:57:31;3.4;;;1.11;;
68375;SDS011;55318;52.068;5.188;2023-04-25T05:59:07;6.9;;;1.0;;
68375;SDS011;55318;52.068;5.188;2023-04-25T06:00:43;7.3;;;1.4;;
68375;SDS011;55318;52.068;5.188;2023-04-25T06:03:56;2.31;;;1.3;;
68375;SDS011;55318;52.068;5.188;2023-04-25T06:05:33;2.5;;;1.3;;
68375;SDS011;55318;52.068;5.188;2023-04-25T06:07:09;2.7;;;1.3;;
68375;SDS011;55318;52.068;5.188;2023-04-25T06:10:21;3.4;;;1.2;;
68375;SDS011;55318;52.068;5.188;2023-04-25T06:11:57;3.3;;;1.5;;
68375;SDS011;55318;52.068;5.188;2023-04-25T06:13:33;3.4;;;1.0;;
68375;SDS011;55318;52.068;5.188;2023-04-25T06:16:46;4.8;;;1.3;;
68375;SDS011;55318;52.068;5.188;2023-04-25T06:18:22;1.6;;;0.9;;
68375;SDS011;55318;52.068;5.188;2023-04-25T06:19:58;5.2;;;2.21;;
68375;SDS011;55318;52.068;5.188;2023-04-25T06:21:34;1.2;;;1.11;;
68375;SDS011;55318;52.068;5.188;2023-04-25T06:24:47;4.7;;;1.2;;
68375;SDS011;55318;52.068;5.188;2023-04-25T06:26:23;2.21;;;0.9;;
68375;SDS011;55318;52.068;5.188;2023-04-25T06:28:00;2.21;;;0.9;;
68375;SDS011;55318;52.068;5.188;2023-04-25T06:31:12;2.9;;;1.6;;
68375;SDS011;55318;52.068;5.188;2023-04-25T06:32:48;2.9;;;1.11;;
68375;SDS011;55318;52.068;5.188;2023-04-25T06:34:24;2.7;;;1.0;;
68375;SDS011;55318;52.068;5.188;2023-04-25T06:37:36;2.7;;;1.0;;
68375;SDS011;55318;52.068;5.188;2023-04-25T06:39:12;2.7;;;1.2;;
68375;SDS011;55318;52.068;5.188;2023-04-25T06:40:49;4.8;;;1.3;;
68375;SDS011;55318;52.068;5.188;2023-04-25T06:42:25;3.0;;;1.3;;
68375;SDS011;55318;52.068;5.188;2023-04-25T06:45:37;3.8;;;1.11;;
68375;SDS011;55318;52.068;5.188;2023-04-25T06:47:13;3.8;;;1.11;;
68375;SDS011;55318;52.068;5.188;2023-04-25T06:48:50;3.5;;;1.11;;
68375;SDS011;55318;52.068;5.188;2023-04-25T06:52:02;1.7;;;0.8;;
68375;SDS011;55318;52.068;5.188;2023-04-25T06:53:39;3.1;;;1.0;;
68375;SDS011;55318;52.068;5.188;2023-04-25T06:55:16;2.31;;;0.8;;
68375;SDS011;55318;52.068;5.188;2023-04-25T06:58:28;2.31;;;1.0;;
68375;SDS011;55318;52.068;5.188;2023-04-25T07:00:05;5.0;;;1.2;;
68375;SDS011;55318;52.068;5.188;2023-04-25T07:01:43;2.8;;;1.6;;
68375;SDS011;55318;52.068;5.188;2023-04-25T07:03:19;2.21;;;1.11;;
68375;SDS011;55318;52.068;5.188;2023-04-25T07:06:33;3.3;;;1.4;;
68375;SDS011;55318;52.068;5.188;2023-04-25T07:08:09;3.3;;;1.0;;
68375;SDS011;55318;52.068;5.188;2023-04-25T07:09:45;9.9;;;2.31;;
68375;SDS011;55318;52.068;5.188;2023-04-25T07:12:57;3.8;;;1.5;;
68375;SDS011;55318;52.068;5.188;2023-04-25T07:14:33;1.8;;;1.0;;
68375;SDS011;55318;52.068;5.188;2023-04-25T07:16:09;7.5;;;1.2;;
68375;SDS011;55318;52.068;5.188;2023-04-25T07:19:22;3.1;;;2.0;;
68375;SDS011;55318;52.068;5.188;2023-04-25T07:20:58;1.9;;;1.0;;
68375;SDS011;55318;52.068;5.188;2023-04-25T07:22:34;7.1;;;1.5;;
68375;SDS011;55318;52.068;5.188;2023-04-25T07:25:46;1.3;;;1.0;;
68375;SDS011;55318;52.068;5.188;2023-04-25T07:27:22;6.1;;;1.8;;
68375;SDS011;55318;52.068;5.188;2023-04-25T07:28:58;3.0;;;0.7;;
68375;SDS011;55318;52.068;5.188;2023-04-25T07:30:35;5.5;;;1.5;;
68375;SDS011;55318;52.068;5.188;2023-04-25T07:33:47;3.3;;;1.7;;
68375;SDS011;55318;52.068;5.188;2023-04-25T07:35:23;2.21;;;1.11;;
68375;SDS011;55318;52.068;5.188;2023-04-25T07:36:59;2.1;;;1.0;;
68375;SDS011;55318;52.068;5.188;2023-04-25T07:40:12;2.1;;;0.7;;
68375;SDS011;55318;52.068;5.188;2023-04-25T07:41:48;2.0;;;0.8;;
68375;SDS011;55318;52.068;5.188;2023-04-25T07:43:25;3.2;;;0.7;;
68375;SDS011;55318;52.068;5.188;2023-04-25T07:46:37;7.1;;;1.0;;
68375;SDS011;55318;52.068;5.188;2023-04-25T07:48:16;2.1;;;1.7;;
68375;SDS011;55318;52.068;5.188;2023-04-25T07:49:53;4.3;;;1.3;;
68375;SDS011;55318;52.068;5.188;2023-04-25T07:51:29;3.2;;;1.11;;
68375;SDS011;55318;52.068;5.188;2023-04-25T07:54:41;3.2;;;0.9;;
68375;SDS011;55318;52.068;5.188;2023-04-25T07:56:18;2.8;;;1.0;;
68375;SDS011;55318;52.068;5.188;2023-04-25T07:57:54;4.41;;;0.7;;
68375;SDS011;55318;52.068;5.188;2023-04-25T08:01:06;0.8;;;0.5;;
68375;SDS011;55318;52.068;5.188;2023-04-25T08:02:42;2.31;;;1.11;;
68375;SDS011;55318;52.068;5.188;2023-04-25T08:04:18;1.6;;;0.7;;
68375;SDS011;55318;52.068;5.188;2023-04-25T08:07:30;1.11;;;0.6;;
68375;SDS011;55318;52.068;5.188;2023-04-25T08:09:07;2.6;;;0.8;;
68375;SDS011;55318;52.068;5.188;2023-04-25T08:10:43;2.5;;;0.7;;
68375;SDS011;55318;52.068;5.188;2023-04-25T08:13:55;1.11;;;1.0;;
68375;SDS011;55318;52.068;5.188;2023-04-25T08:15:31;1.9;;;0.7;;
68375;SDS011;55318;52.068;5.188;2023-04-25T08:17:07;1.8;;;0.8;;
68375;SDS011;55318;52.068;5.188;2023-04-25T08:18:44;3.0;;;1.0;;
68375;SDS011;55318;52.068;5.188;2023-04-25T08:21:57;5.3;;;1.2;;
68375;SDS011;55318;52.068;5.188;2023-04-25T08:23:33;3.2;;;0.9;;
68375;SDS011;55318;52.068;5.188;2023-04-25T08:25:09;3.2;;;0.8;;
68375;SDS011;55318;52.068;5.188;2023-04-25T08:28:21;1.9;;;1.0;;
68375;SDS011;55318;52.068;5.188;2023-04-25T08:29:57;4.61;;;1.4;;
68375;SDS011;55318;52.068;5.188;2023-04-25T08:31:33;5.3;;;1.6;;
68375;SDS011;55318;52.068;5.188;2023-04-25T08:34:46;4.1;;;1.3;;
68375;SDS011;55318;52.068;5.188;2023-04-25T08:36:22;1.7;;;0.6;;
68375;SDS011;55318;52.068;5.188;2023-04-25T08:37:58;2.6;;;1.2;;
68375;SDS011;55318;52.068;5.188;2023-04-25T08:39:34;4.0;;;0.9;;
68375;SDS011;55318;52.068;5.188;2023-04-25T08:42:47;1.7;;;1.3;;
68375;SDS011;55318;52.068;5.188;2023-04-25T08:44:25;4.1;;;1.2;;
68375;SDS011;55318;52.068;5.188;2023-04-25T08:46:02;3.8;;;0.7;;
68375;SDS011;55318;52.068;5.188;2023-04-25T08:49:15;2.21;;;1.2;;
68375;SDS011;55318;52.068;5.188;2023-04-25T08:50:53;3.1;;;0.9;;
68375;SDS011;55318;52.068;5.188;2023-04-25T08:52:32;1.4;;;0.9;;
68375;SDS011;55318;52.068;5.188;2023-04-25T08:54:13;2.21;;;0.9;;
68375;SDS011;55318;52.068;5.188;2023-04-25T08:57:29;3.2;;;0.8;;
68375;SDS011;55318;52.068;5.188;2023-04-25T08:59:06;2.9;;;1.3;;
68375;SDS011;55318;52.068;5.188;2023-04-25T09:00:43;5.0;;;0.8;;
68375;SDS011;55318;52.068;5.188;2023-04-25T09:03:57;3.1;;;0.8;;
68375;SDS011;55318;52.068;5.188;2023-04-25T09:05:33;3.6;;;0.5;;
68375;SDS011;55318;52.068;5.188;2023-04-25T09:07:10;2.4;;;0.7;;
68375;SDS011;55318;52.068;5.188;2023-04-25T09:10:25;2.0;;;0.8;;
68375;SDS011;55318;52.068;5.188;2023-04-25T09:12:03;1.2;;;0.7;;
68375;SDS011;55318;52.068;5.188;2023-04-25T09:13:40;1.8;;;0.6;;
68375;SDS011;55318;52.068;5.188;2023-04-25T09:15:16;2.6;;;0.9;;
68375;SDS011;55318;52.068;5.188;2023-04-25T09:18:37;1.5;;;0.5;;
68375;SDS011;55318;52.068;5.188;2023-04-25T09:20:13;0.7;;;0.4;;
68375;SDS011;55318;52.068;5.188;2023-04-25T09:21:50;2.0;;;0.9;;
68375;SDS011;55318;52.068;5.188;2023-04-25T09:25:03;1.3;;;0.5;;
68375;SDS011;55318;52.068;5.188;2023-04-25T09:26:44;0.9;;;0.4;;
68375;SDS011;55318;52.068;5.188;2023-04-25T09:28:23;2.31;;;0.8;;
68375;SDS011;55318;52.068;5.188;2023-04-25T09:30:00;1.8;;;0.5;;
68375;SDS011;55318;52.068;5.188;2023-04-25T09:33:12;0.6;;;0.5;;
68375;SDS011;55318;52.068;5.188;2023-04-25T09:34:50;1.7;;;0.6;;
68375;SDS011;55318;52.068;5.188;2023-04-25T09:36:29;2.6;;;0.9;;
68375;SDS011;55318;52.068;5.188;2023-04-25T09:38:07;1.9;;;0.5;;
68375;SDS011;55318;52.068;5.188;2023-04-25T09:41:22;2.7;;;0.8;;
68375;SDS011;55318;52.068;5.188;2023-04-25T09:42:59;1.11;;;0.5;;
68375;SDS011;55318;52.068;5.188;2023-04-25T09:44:35;3.3;;;0.8;;
68375;SDS011;55318;52.068;5.188;2023-04-25T09:47:48;2.9;;;1.0;;
68375;SDS011;55318;52.068;5.188;2023-04-25T09:49:25;3.6;;;0.8;;
68375;SDS011;55318;52.068;5.188;2023-04-25T09:51:03;1.3;;;0.5;;
68375;SDS011;55318;52.068;5.188;2023-04-25T09:54:19;1.5;;;0.8;;
68375;SDS011;55318;52.068;5.188;2023-04-25T09:55:55;1.9;;;0.5;;
68375;SDS011;55318;52.068;5.188;2023-04-25T09:57:32;2.21;;;0.6;;
68375;SDS011;55318;52.068;5.188;2023-04-25T09:59:08;1.0;;;0.5;;
68375;SDS011;55318;52.068;5.188;2023-04-25T10:02:24;2.6;;;1.9;;
68375;SDS011;55318;52.068;5.188;2023-04-25T10:04:03;4.0;;;1.0;;
68375;SDS011;55318;52.068;5.188;2023-04-25T10:05:42;2.0;;;0.5;;
68375;SDS011;55318;52.068;5.188;2023-04-25T10:08:57;3.1;;;0.5;;
68375;SDS011;55318;52.068;5.188;2023-04-25T10:10:34;4.0;;;1.2;;
68375;SDS011;55318;52.068;5.188;2023-04-25T10:12:12;2.7;;;1.3;;
68375;SDS011;55318;52.068;5.188;2023-04-25T10:13:48;1.8;;;0.5;;
68375;SDS011;55318;52.068;5.188;2023-04-25T10:17:03;4.5;;;0.7;;
68375;SDS011;55318;52.068;5.188;2023-04-25T10:18:39;1.8;;;0.7;;
68375;SDS011;55318;52.068;5.188;2023-04-25T10:20:15;0.7;;;0.7;;
68375;SDS011;55318;52.068;5.188;2023-04-25T10:23:33;0.6;;;0.6;;
68375;SDS011;55318;52.068;5.188;2023-04-25T10:25:11;1.0;;;0.7;;
68375;SDS011;55318;52.068;5.188;2023-04-25T10:26:48;4.1;;;0.6;;
68375;SDS011;55318;52.068;5.188;2023-04-25T10:28:26;3.8;;;0.8;;
68375;SDS011;55318;52.068;5.188;2023-04-25T10:31:45;2.5;;;0.9;;
68375;SDS011;55318;52.068;5.188;2023-04-25T10:33:28;1.3;;;0.5;;
68375;SDS011;55318;52.068;5.188;2023-04-25T10:35:11;2.31;;;0.5;;
68375;SDS011;55318;52.068;5.188;2023-04-25T10:36:50;3.7;;;1.0;;
68375;SDS011;55318;52.068;5.188;2023-04-25T10:40:07;0.7;;;0.7;;
68375;SDS011;55318;52.068;5.188;2023-04-25T10:41:45;1.4;;;0.6;;
68375;SDS011;55318;52.068;5.188;2023-04-25T10:43:33;1.4;;;0.6;;
68375;SDS011;55318;52.068;5.188;2023-04-25T10:45:15;0.7;;;0.4;;
68375;SDS011;55318;52.068;5.188;2023-04-25T10:48:27;0.9;;;0.7;;
68375;SDS011;55318;52.068;5.188;2023-04-25T10:50:05;1.0;;;0.6;;
68375;SDS011;55318;52.068;5.188;2023-04-25T10:51:43;2.1;;;0.6;;
68375;SDS011;55318;52.068;5.188;2023-04-25T10:54:59;1.8;;;0.4;;
68375;SDS011;55318;52.068;5.188;2023-04-25T10:56:41;2.0;;;0.5;;
68375;SDS011;55318;52.068;5.188;2023-04-25T10:58:20;0.7;;;0.4;;
68375;SDS011;55318;52.068;5.188;2023-04-25T10:59:59;2.4;;;0.5;;
68375;SDS011;55318;52.068;5.188;2023-04-25T11:03:20;2.1;;;0.8;;
68375;SDS011;55318;52.068;5.188;2023-04-25T11:04:57;2.4;;;0.7;;
68375;SDS011;55318;52.068;5.188;2023-04-25T11:06:40;1.5;;;0.9;;
68375;SDS011;55318;52.068;5.188;2023-04-25T11:08:46;2.31;;;1.11;;
68375;SDS011;55318;52.068;5.188;2023-04-25T11:10:26;2.7;;;0.6;;
68375;SDS011;55318;52.068;5.188;2023-04-25T11:13:40;0.8;;;0.6;;
68375;SDS011;55318;52.068;5.188;2023-04-25T11:15:16;1.5;;;0.6;;
68375;SDS011;55318;52.068;5.188;2023-04-25T11:16:52;2.1;;;0.8;;
68375;SDS011;55318;52.068;5.188;2023-04-25T11:20:05;1.6;;;0.7;;
68375;SDS011;55318;52.068;5.188;2023-04-25T11:21:43;2.21;;;0.8;;
68375;SDS011;55318;52.068;5.188;2023-04-25T11:23:19;3.6;;;1.3;;
68375;SDS011;55318;52.068;5.188;2023-04-25T11:24:55;4.1;;;0.8;;
68375;SDS011;55318;52.068;5.188;2023-04-25T11:28:07;2.31;;;0.8;;
68375;SDS011;55318;52.068;5.188;2023-04-25T11:29:43;1.9;;;1.3;;
68375;SDS011;55318;52.068;5.188;2023-04-25T11:31:20;3.5;;;0.7;;
68375;SDS011;55318;52.068;5.188;2023-04-25T11:34:34;2.9;;;0.4;;
68375;SDS011;55318;52.068;5.188;2023-04-25T11:36:10;0.8;;;0.5;;
68375;SDS011;55318;52.068;5.188;2023-04-25T11:37:46;1.7;;;0.5;;
68375;SDS011;55318;52.068;5.188;2023-04-25T11:41:00;1.7;;;0.7;;
68375;SDS011;55318;52.068;5.188;2023-04-25T11:42:37;2.9;;;0.6;;
68375;SDS011;55318;52.068;5.188;2023-04-25T11:44:15;2.8;;;0.6;;
68375;SDS011;55318;52.068;5.188;2023-04-25T11:45:53;3.1;;;0.9;;
68375;SDS011;55318;52.068;5.188;2023-04-25T11:49:05;1.5;;;0.6;;
68375;SDS011;55318;52.068;5.188;2023-04-25T11:50:41;3.7;;;0.8;;
68375;SDS011;55318;52.068;5.188;2023-04-25T11:52:17;1.0;;;0.5;;
68375;SDS011;55318;52.068;5.188;2023-04-25T11:55:29;1.4;;;0.5;;
68375;SDS011;55318;52.068;5.188;2023-04-25T11:57:05;1.9;;;0.7;;
68375;SDS011;55318;52.068;5.188;2023-04-25T11:58:59;4.61;;;1.11;;
68375;SDS011;55318;52.068;5.188;2023-04-25T12:00:37;0.7;;;0.5;;
68375;SDS011;55318;52.068;5.188;2023-04-25T12:04:09;0.7;;;0.5;;
68375;SDS011;55318;52.068;5.188;2023-04-25T12:05:54;0.6;;;0.3;;
68375;SDS011;55318;52.068;5.188;2023-04-25T12:07:38;0.7;;;0.5;;
68375;SDS011;55318;52.068;5.188;2023-04-25T12:09:15;1.6;;;0.7;;
68375;SDS011;55318;52.068;5.188;2023-04-25T12:10:55;2.4;;;0.9;;
68375;SDS011;55318;52.068;5.188;2023-04-25T12:14:08;1.2;;;0.6;;
68375;SDS011;55318;52.068;5.188;2023-04-25T12:15:44;0.9;;;0.6;;
68375;SDS011;55318;52.068;5.188;2023-04-25T12:17:20;5.6;;;0.7;;
68375;SDS011;55318;52.068;5.188;2023-04-25T12:20:34;2.31;;;0.5;;
68375;SDS011;55318;52.068;5.188;2023-04-25T12:22:18;1.11;;;0.6;;
68375;SDS011;55318;52.068;5.188;2023-04-25T12:23:56;0.7;;;0.7;;
68375;SDS011;55318;52.068;5.188;2023-04-25T12:25:33;2.1;;;0.6;;
68375;SDS011;55318;52.068;5.188;2023-04-25T12:28:51;2.0;;;0.7;;
68375;SDS011;55318;52.068;5.188;2023-04-25T12:30:27;1.9;;;0.6;;
68375;SDS011;55318;52.068;5.188;2023-04-25T12:32:03;2.31;;;0.8;;
68375;SDS011;55318;52.068;5.188;2023-04-25T12:35:15;2.1;;;0.7;;
68375;SDS011;55318;52.068;5.188;2023-04-25T12:36:52;2.5;;;0.6;;
68375;SDS011;55318;52.068;5.188;2023-04-25T12:38:29;0.8;;;0.3;;
68375;SDS011;55318;52.068;5.188;2023-04-25T12:40:07;1.4;;;0.6;;
68375;SDS011;55318;52.068;5.188;2023-04-25T12:43:21;2.7;;;0.4;;
68375;SDS011;55318;52.068;5.188;2023-04-25T12:44:57;2.8;;;0.6;;
68375;SDS011;55318;52.068;5.188;2023-04-25T12:46:33;3.8;;;0.6;;
68375;SDS011;55318;52.068;5.188;2023-04-25T12:49:46;4.8;;;1.11;;
68375;SDS011;55318;52.068;5.188;2023-04-25T12:51:22;3.5;;;0.9;;
68375;SDS011;55318;52.068;5.188;2023-04-25T12:52:58;0.9;;;0.4;;
68375;SDS011;55318;52.068;5.188;2023-04-25T12:56:10;1.11;;;0.6;;
68375;SDS011;55318;52.068;5.188;2023-04-25T12:57:46;1.0;;;0.5;;
68375;SDS011;55318;52.068;5.188;2023-04-25T12:59:22;2.8;;;1.11;;